Time;durP1;ratioP1;P1;durP2;ratioP2;P2;SDS_P1;SDS_P2;PMS_P1;PMS_P2;Temp;Humidity;BMP_temperature;BMP_pressure;BME280_temperature;BME280_humidity;BME280_pressure;Samples;Min_cycle;Max_cycle;Signal;HPM_P1;HPM_P2
2021/08/21 00:02:12;;;;;;;3.47;3.17;;;;;;;18.65;67.85;96911.09;5025152;28;20086;-81
2021/08/21 00:04:40;;;;;;;3.58;2.67;;;;;;;18.67;67.41;96922.25;5028504;28;20065;-81
2021/08/21 00:07:08;;;;;;;3.17;2.05;;;;;;;18.65;64.10;96911.91;5028851;28;20046;-81
2021/08/21 00:09:37;;;;;;;3.90;2.35;;;;;;;18.61;63.14;96916.03;5027930;28;20061;-81
2021/08/21 00:12:05;;;;;;;3.75;2.33;;;;;;;18.57;63.17;96909.59;5028181;28;20081;-81
2021/08/21 00:14:33;;;;;;;2.13;1.92;;;;;;;18.59;62.89;96918.09;5028140;28;20074;-81
2021/08/21 00:17:03;;;;;;;6.30;2.15;;;;;;;18.57;62.13;96914.88;5028063;28;20081;-81
2021/08/21 00:19:31;;;;;;;2.25;1.70;;;;;;;18.53;61.95;96908.41;5028058;28;20045;-81
2021/08/21 00:21:59;;;;;;;1.42;1.33;;;;;;;18.51;61.68;96907.84;5027718;28;20042;-81
2021/08/21 00:24:27;;;;;;;2.63;1.80;;;;;;;18.48;61.84;96903.00;5027726;28;20060;-81
2021/08/21 00:26:54;;;;;;;4.30;2.00;;;;;;;18.45;61.81;96906.88;5028322;28;20045;-81
2021/08/21 00:29:22;;;;;;;2.83;1.98;;;;;;;18.43;62.63;96908.97;5028131;28;20432;-81
2021/08/21 00:31:50;;;;;;;3.70;2.20;;;;;;;18.43;62.46;96906.34;5027559;28;20049;-81
2021/08/21 00:34:19;;;;;;;1.90;1.80;;;;;;;18.39;62.01;96910.44;5027746;28;20058;-81
2021/08/21 00:36:46;;;;;;;2.85;1.90;;;;;;;18.37;62.80;96909.06;5027117;28;20497;-81
2021/08/21 00:39:14;;;;;;;1.77;1.52;;;;;;;18.35;62.04;96900.56;5027842;28;20060;-81
2021/08/21 00:41:43;;;;;;;3.90;2.25;;;;;;;18.33;62.13;96908.69;5028063;28;20042;-81
2021/08/21 00:44:11;;;;;;;2.65;2.03;;;;;;;18.30;61.91;96906.47;5028563;28;20050;-81
2021/08/21 00:46:54;;;;;;;2.22;1.83;;;;;;;18.27;61.80;96906.94;5029280;28;20056;-81
2021/08/21 00:49:23;;;;;;;2.70;1.90;;;;;;;18.22;62.10;96907.59;5029033;28;20054;-81
2021/08/21 00:51:52;;;;;;;4.35;1.90;;;;;;;18.18;62.05;96905.63;5028478;28;20046;-81
2021/08/21 00:54:19;;;;;;;2.20;2.00;;;;;;;18.15;61.98;96906.91;5028497;28;20046;-81
2021/08/21 00:56:47;;;;;;;4.75;1.90;;;;;;;18.11;62.10;96900.44;5040252;28;20101;-80
2021/08/21 00:59:15;;;;;;;3.95;2.15;;;;;;;18.10;62.43;96902.28;5039595;28;20097;-81
2021/08/21 01:01:43;;;;;;;3.13;1.90;;;;;;;18.09;62.16;96902.50;5039484;28;20054;-81
2021/08/21 01:04:11;;;;;;;2.80;1.65;;;;;;;18.08;62.23;96900.88;5030811;28;20077;-81
2021/08/21 01:06:40;;;;;;;3.83;2.00;;;;;;;18.08;62.75;96899.06;5029888;28;20105;-82
2021/08/21 01:09:08;;;;;;;4.07;1.90;;;;;;;18.08;62.45;96901.69;5029149;28;20058;-81
2021/08/21 01:11:36;;;;;;;2.35;1.77;;;;;;;18.11;66.16;96895.97;5028493;28;20046;-81
2021/08/21 01:14:04;;;;;;;2.85;2.38;;;;;;;18.18;66.04;96900.34;5035831;28;20093;-81
2021/08/21 01:16:32;;;;;;;3.47;3.17;;;;;;;18.22;65.46;96897.03;5039741;28;20064;-81
2021/08/21 01:18:59;;;;;;;4.53;3.40;;;;;;;18.16;64.95;96891.84;5037291;28;20046;-81
2021/08/21 01:21:27;;;;;;;6.30;3.85;;;;;;;18.07;64.61;96894.00;5027525;28;20056;-81
2021/08/21 01:23:56;;;;;;;5.40;3.65;;;;;;;18.03;64.52;96893.63;5027036;28;20057;-81
2021/08/21 01:26:24;;;;;;;3.92;3.33;;;;;;;18.00;64.52;96893.28;5025949;28;20076;-81
2021/08/21 01:28:53;;;;;;;6.43;3.33;;;;;;;17.95;64.56;96891.31;5027025;28;20542;-81
2021/08/21 01:31:21;;;;;;;5.38;3.33;;;;;;;17.94;65.82;96897.59;5027190;28;20060;-81
2021/08/21 01:33:48;;;;;;;4.10;3.42;;;;;;;17.94;66.72;96889.69;5027271;28;20069;-81
2021/08/21 01:36:16;;;;;;;4.13;3.30;;;;;;;17.96;66.09;96889.47;5027265;28;20134;-81
2021/08/21 01:39:01;;;;;;;3.10;2.80;;;;;;;17.91;64.98;96898.84;5026658;28;20060;-81
2021/08/21 01:41:29;;;;;;;5.43;3.28;;;;;;;17.89;65.95;96886.91;5027117;28;20113;-81
2021/08/21 01:43:58;;;;;;;4.75;3.42;;;;;;;17.84;64.95;96886.75;5026297;28;20053;-81
2021/08/21 01:46:26;;;;;;;3.00;2.70;;;;;;;17.83;67.40;96888.56;5027294;28;20070;-82
2021/08/21 01:48:53;;;;;;;2.78;2.40;;;;;;;17.87;66.81;96894.22;5027360;28;20444;-81
2021/08/21 01:51:21;;;;;;;5.07;2.63;;;;;;;17.89;67.67;96889.53;5026121;28;20062;-81
2021/08/21 01:53:51;;;;;;;5.70;3.30;;;;;;;17.92;68.69;96887.25;5027365;28;20050;-82
2021/08/21 01:56:19;;;;;;;4.03;3.38;;;;;;;17.97;68.57;96883.94;5026905;28;20057;-81
2021/08/21 01:58:46;;;;;;;4.80;3.80;;;;;;;17.98;68.22;96892.69;5026069;28;20502;-81
2021/08/21 02:01:16;;;;;;;6.65;3.85;;;;;;;17.97;68.09;96889.22;5024921;28;20053;-81
2021/08/21 02:03:46;;;;;;;4.15;3.45;;;;;;;17.99;68.36;96878.44;5024306;28;20077;-81
2021/08/21 02:06:14;;;;;;;4.38;3.95;;;;;;;17.95;68.00;96880.75;5026544;28;20056;-81
2021/08/21 02:08:42;;;;;;;4.30;3.90;;;;;;;17.90;68.25;96880.59;5025699;28;20057;-81
2021/08/21 02:11:10;;;;;;;5.32;3.95;;;;;;;17.90;68.87;96884.03;5026639;28;20125;-81
2021/08/21 02:13:38;;;;;;;4.35;3.38;;;;;;;17.91;68.56;96883.00;5026555;28;20070;-81
2021/08/21 02:16:06;;;;;;;4.97;3.50;;;;;;;17.91;69.06;96890.13;5026595;28;20053;-81
2021/08/21 02:18:35;;;;;;;4.80;3.63;;;;;;;17.87;68.16;96886.31;5025905;28;20049;-81
2021/08/21 02:21:02;;;;;;;4.85;3.88;;;;;;;17.88;68.19;96886.06;5026305;28;20041;-81
2021/08/21 02:23:30;;;;;;;5.57;3.75;;;;;;;17.89;68.67;96886.91;5026407;28;20052;-81
2021/08/21 02:25:58;;;;;;;4.82;4.30;;;;;;;17.84;67.53;96886.75;5025557;28;20056;-81
2021/08/21 02:28:25;;;;;;;4.82;4.30;;;;;;;17.76;67.12;96881.75;5025843;28;20061;-81
2021/08/21 02:30:54;;;;;;;4.53;4.07;;;;;;;17.74;69.07;96878.53;5026251;28;20049;-81
2021/08/21 02:33:21;;;;;;;5.03;3.75;;;;;;;17.68;66.81;96880.19;5025838;28;20050;-81
2021/08/21 02:35:50;;;;;;;5.05;3.70;;;;;;;17.63;68.85;96880.84;5026000;28;20053;-81
2021/08/21 02:38:18;;;;;;;5.28;4.78;;;;;;;17.65;69.09;96870.88;5026050;28;20052;-81
2021/08/21 02:40:46;;;;;;;4.50;4.10;;;;;;;17.67;68.87;96868.84;5025803;28;20046;-81
2021/08/21 02:43:13;;;;;;;5.72;4.30;;;;;;;17.65;67.67;96873.53;5025834;28;20046;-81
2021/08/21 02:45:41;;;;;;;4.65;3.70;;;;;;;17.65;68.40;96870.09;5025762;28;20054;-81
2021/08/21 02:48:09;;;;;;;5.50;3.33;;;;;;;17.64;67.81;96866.63;5025268;28;20394;-81
2021/08/21 02:50:37;;;;;;;3.53;3.10;;;;;;;17.61;68.25;96861.81;5026069;28;20065;-81
2021/08/21 02:53:06;;;;;;;3.85;3.55;;;;;;;17.61;68.48;96868.91;5025101;28;20058;-81
2021/08/21 02:55:33;;;;;;;5.20;4.32;;;;;;;17.62;68.40;96866.06;5024834;28;20497;-81
2021/08/21 02:58:02;;;;;;;6.15;3.45;;;;;;;17.62;68.31;96866.06;5025909;28;20114;-81
2021/08/21 03:00:30;;;;;;;5.05;3.63;;;;;;;17.60;67.97;96868.13;5026220;28;20060;-81
2021/08/21 03:02:59;;;;;;;4.75;3.20;;;;;;;17.53;67.45;96867.34;5025586;28;20105;-81
2021/08/21 03:05:26;;;;;;;4.53;3.90;;;;;;;17.46;66.64;96861.34;5025715;28;20056;-81
2021/08/21 03:07:54;;;;;;;4.60;3.80;;;;;;;17.38;67.65;96854.56;5025017;28;20056;-81
2021/08/21 03:10:24;;;;;;;5.35;3.28;;;;;;;17.35;68.22;96856.81;5025734;28;20510;-81
2021/08/21 03:12:51;;;;;;;3.50;3.20;;;;;;;17.35;68.97;96859.44;5025182;28;20048;-81
2021/08/21 03:15:19;;;;;;;3.90;3.50;;;;;;;17.39;69.45;96858.00;5024899;28;20074;-81
2021/08/21 03:17:47;;;;;;;3.47;3.17;;;;;;;17.41;69.47;96869.94;5025086;28;20050;-81
2021/08/21 03:20:15;;;;;;;7.10;3.67;;;;;;;17.41;69.13;96867.28;5024466;28;20050;-81
2021/08/21 03:22:43;;;;;;;4.95;3.55;;;;;;;17.37;69.60;96867.94;5024406;28;20057;-81
2021/08/21 03:25:10;;;;;;;4.18;3.55;;;;;;;17.29;68.71;96866.38;5024347;28;20060;-81
2021/08/21 03:27:39;;;;;;;4.95;3.78;;;;;;;17.18;68.93;96867.91;5024472;28;20050;-81
2021/08/21 03:30:08;;;;;;;3.88;3.47;;;;;;;17.15;69.64;96865.72;5025157;28;20056;-81
2021/08/21 03:32:36;;;;;;;6.20;3.85;;;;;;;17.12;68.25;96858.25;5024613;28;20049;-81
2021/08/21 03:35:04;;;;;;;4.88;3.17;;;;;;;17.08;68.30;96857.06;5023841;28;20042;-81
2021/08/21 03:40:14;;;;;;;5.00;2.83;;;;;;;17.03;67.11;96870.06;5229176;23;20040;-80
2021/08/21 03:42:44;;;;;;;2.50;2.30;;;;;;;17.03;67.38;96867.44;5041865;28;20065;-79
2021/08/21 03:45:13;;;;;;;3.05;2.70;;;;;;;17.06;69.30;96856.47;5041808;28;20041;-79
2021/08/21 03:47:42;;;;;;;4.57;2.28;;;;;;;17.05;67.29;96868.84;5041661;28;20053;-79
2021/08/21 03:50:11;;;;;;;4.57;2.28;;;;;;;17.04;66.64;96869.84;5041733;28;20033;-80
2021/08/21 03:52:40;;;;;;;3.40;2.20;;;;;;;17.04;67.94;96861.16;5041462;28;20054;-80
2021/08/21 03:55:09;;;;;;;2.20;2.00;;;;;;;17.03;66.79;96862.16;5041502;28;20046;-80
2021/08/21 03:57:37;;;;;;;4.00;2.53;;;;;;;16.99;66.55;96868.88;5041571;28;20054;-81
2021/08/21 04:00:09;;;;;;;2.90;1.98;;;;;;;16.97;67.44;96860.41;5024624;28;20030;-80
2021/08/21 04:02:37;;;;;;;2.60;2.23;;;;;;;16.97;69.02;96863.06;5041597;28;20113;-80
2021/08/21 04:05:06;;;;;;;4.53;2.30;;;;;;;16.97;67.12;96868.31;5041515;28;20065;-80
2021/08/21 04:07:34;;;;;;;2.67;2.40;;;;;;;16.98;67.58;96870.72;5041280;28;20034;-80
2021/08/21 04:10:03;;;;;;;2.17;1.98;;;;;;;17.04;69.95;96866.44;5041599;28;20054;-79
2021/08/21 04:12:31;;;;;;;2.40;2.20;;;;;;;17.10;69.99;96870.84;5041112;28;20053;-80
2021/08/21 04:15:01;;;;;;;2.58;2.38;;;;;;;17.13;68.29;96870.41;5041226;28;20045;-79
2021/08/21 04:17:33;;;;;;;4.13;2.33;;;;;;;17.09;66.99;96864.72;5041420;28;20030;-80
2021/08/21 04:20:05;;;;;;;4.00;2.10;;;;;;;17.09;66.33;96867.38;5041564;28;20102;-80
2021/08/21 04:22:33;;;;;;;2.20;2.00;;;;;;;17.06;66.10;96872.28;5024436;28;20030;-79
2021/08/21 04:25:01;;;;;;;2.55;2.35;;;;;;;17.07;69.04;96873.88;5041316;28;20038;-79
2021/08/21 04:27:29;;;;;;;6.10;3.13;;;;;;;17.12;69.39;96863.53;5041125;28;20057;-80
2021/08/21 04:29:57;;;;;;;6.55;4.55;;;;;;;17.16;68.79;96866.50;5063669;23;20056;-80
2021/08/21 04:32:26;;;;;;;6.15;4.35;;;;;;;17.19;68.23;96869.53;5040903;28;20033;-81
2021/08/21 04:34:55;;;;;;;5.55;3.67;;;;;;;17.20;67.81;96872.97;5040945;28;20054;-80
2021/08/21 04:37:24;;;;;;;5.05;4.28;;;;;;;17.20;69.14;96867.69;5040910;28;20044;-81
2021/08/21 04:39:52;;;;;;;5.88;3.90;;;;;;;17.18;67.31;96865.25;5040763;28;20046;-80
2021/08/21 04:42:20;;;;;;;4.20;3.42;;;;;;;17.18;68.36;96867.91;5040688;28;20053;-80
2021/08/21 04:44:49;;;;;;;4.35;2.75;;;;;;;17.17;66.71;96874.22;5042312;23;20501;-81
2021/08/21 04:47:17;;;;;;;5.00;3.17;;;;;;;17.15;68.54;96868.34;5008937;28;20054;-82
2021/08/21 04:49:47;;;;;;;3.10;2.75;;;;;;;17.14;68.32;96874.63;5009190;28;20078;-82
2021/08/21 04:52:18;;;;;;;5.68;3.00;;;;;;;17.11;66.63;96877.72;5009985;28;20060;-81
2021/08/21 04:54:46;;;;;;;4.07;3.13;;;;;;;17.08;66.95;96880.78;5009160;28;20054;-81
2021/08/21 04:57:15;;;;;;;3.72;3.42;;;;;;;17.09;68.63;96882.38;5009538;28;20465;-81
2021/08/21 04:59:44;;;;;;;5.75;4.20;;;;;;;17.11;68.41;96882.97;5009471;28;20054;-82
2021/08/21 05:02:14;;;;;;;4.43;4.00;;;;;;;17.14;67.62;96879.91;5009184;28;20062;-83
2021/08/21 05:04:43;;;;;;;5.10;4.13;;;;;;;17.15;68.06;96888.63;5008695;28;20054;-81
2021/08/21 05:07:12;;;;;;;4.32;3.65;;;;;;;17.15;67.09;96897.34;5008584;28;20112;-82
2021/08/21 05:09:42;;;;;;;4.93;3.58;;;;;;;17.17;68.23;96897.13;5012049;28;20042;-82
2021/08/21 05:12:10;;;;;;;5.90;3.85;;;;;;;17.15;66.71;96888.63;5012516;28;20043;-82
2021/08/21 05:14:39;;;;;;;4.45;3.85;;;;;;;17.15;68.25;96896.53;5012174;28;20047;-82
2021/08/21 05:17:08;;;;;;;6.25;3.72;;;;;;;17.11;67.74;96885.63;5011016;28;20050;-81
2021/08/21 05:19:40;;;;;;;4.28;3.72;;;;;;;17.14;68.35;96895.72;5009613;28;20050;-81
2021/08/21 05:22:23;;;;;;;5.35;4.20;;;;;;;17.19;68.93;96893.25;5012120;28;20073;-82
2021/08/21 05:24:54;;;;;;;4.95;3.75;;;;;;;17.20;69.38;96889.59;5011732;28;20113;-82
2021/08/21 05:27:24;;;;;;;5.00;4.22;;;;;;;17.23;69.66;96896.25;5011736;28;20054;-82
2021/08/21 05:29:54;;;;;;;4.80;4.32;;;;;;;17.22;68.20;96897.28;5008993;28;20046;-82
2021/08/21 05:32:22;;;;;;;4.78;3.65;;;;;;;17.19;68.39;96893.25;5008064;28;20050;-82
2021/08/21 05:34:51;;;;;;;5.57;4.30;;;;;;;17.20;67.49;96902.75;5007427;28;20085;-82
2021/08/21 05:37:20;;;;;;;5.15;4.38;;;;;;;17.21;68.92;96898.31;5008201;28;20078;-82
2021/08/21 05:39:49;;;;;;;5.60;4.10;;;;;;;17.24;68.44;96901.31;5007693;28;20081;-82
2021/08/21 05:42:19;;;;;;;5.60;4.10;;;;;;;17.27;68.65;96898.25;5008039;28;20055;-82
2021/08/21 05:44:48;;;;;;;6.05;4.72;;;;;;;17.30;67.60;96889.91;5007903;28;20061;-81
2021/08/21 05:47:17;;;;;;;5.20;4.47;;;;;;;17.31;68.32;96890.72;5007720;28;20050;-82
2021/08/21 05:49:46;;;;;;;8.57;4.80;;;;;;;17.29;67.94;96892.75;5008132;28;20477;-82
2021/08/21 05:52:15;;;;;;;9.68;4.65;;;;;;;17.27;67.06;96890.34;5007150;28;20054;-81
2021/08/21 05:54:43;;;;;;;5.88;4.47;;;;;;;17.28;68.96;96891.94;5007820;28;20061;-82
2021/08/21 05:57:12;;;;;;;5.82;4.85;;;;;;;17.34;69.22;96895.56;5007851;28;20105;-82
2021/08/21 05:59:43;;;;;;;6.03;4.93;;;;;;;17.38;68.25;96890.63;5007255;28;20052;-81
2021/08/21 06:02:12;;;;;;;5.65;4.70;;;;;;;17.39;69.17;96892.28;5007739;28;20128;-82
2021/08/21 06:04:41;;;;;;;7.13;5.10;;;;;;;17.45;68.78;96896.69;5007156;28;20141;-82
2021/08/21 06:07:10;;;;;;;7.20;4.68;;;;;;;17.49;67.53;96900.47;5007580;28;20106;-81
2021/08/21 06:09:39;;;;;;;8.05;4.53;;;;;;;17.48;67.22;96902.31;5007786;28;20056;-82
2021/08/21 06:12:08;;;;;;;5.55;3.78;;;;;;;17.54;68.63;96916.47;5008610;28;20109;-81
2021/08/21 06:14:39;;;;;;;8.02;4.18;;;;;;;17.59;68.34;96911.34;5006431;28;20046;-81
2021/08/21 06:17:10;;;;;;;10.02;7.10;;;;;;;17.65;67.86;96907.81;5004684;28;20062;-82
2021/08/21 06:19:39;;;;;;;27.98;19.60;;;;;;;17.69;67.56;96906.38;5004720;28;20052;-82
2021/08/21 06:22:08;;;;;;;6.32;5.07;;;;;;;17.76;67.59;96908.13;5006320;28;20047;-82
2021/08/21 06:24:37;;;;;;;4.40;3.67;;;;;;;17.86;67.78;96913.72;5006147;28;20081;-82
2021/08/21 06:27:09;;;;;;;6.93;3.25;;;;;;;17.94;67.37;96917.91;5007065;28;20051;-82
2021/08/21 06:29:38;;;;;;;5.47;3.35;;;;;;;18.05;67.77;96917.16;5006317;28;20054;-82
2021/08/21 06:32:10;;;;;;;4.20;3.20;;;;;;;18.16;67.24;96918.25;5006907;28;20054;-82
2021/08/21 06:34:39;;;;;;;6.93;2.97;;;;;;;18.24;66.84;96917.97;5007092;28;20054;-82
2021/08/21 06:37:08;;;;;;;4.57;3.35;;;;;;;18.33;67.33;96911.34;5006784;28;20052;-82
2021/08/21 06:39:37;;;;;;;4.15;3.42;;;;;;;18.43;67.30;96918.72;5006009;28;20497;-81
2021/08/21 06:42:06;;;;;;;7.05;4.57;;;;;;;18.53;66.56;96919.00;5007373;28;20058;-82
2021/08/21 06:44:34;;;;;;;9.10;6.85;;;;;;;18.64;67.15;96915.56;5007073;28;20058;-82
2021/08/21 06:47:06;;;;;;;5.20;4.45;;;;;;;18.77;67.34;96927.78;5007648;28;20054;-83
2021/08/21 06:49:36;;;;;;;4.93;2.55;;;;;;;18.88;66.71;96924.41;5007048;28;20118;-82
2021/08/21 06:52:06;;;;;;;4.85;2.80;;;;;;;18.99;66.73;96912.25;5007842;28;20046;-82
2021/08/21 06:54:34;;;;;;;4.88;2.85;;;;;;;19.10;65.91;96915.94;5007150;28;20065;-82
2021/08/21 06:57:03;;;;;;;5.53;2.85;;;;;;;19.21;65.21;96909.06;5013080;28;20047;-82
2021/08/21 06:59:33;;;;;;;4.00;3.05;;;;;;;19.32;64.70;96914.34;5018876;28;20031;-82
2021/08/21 07:02:03;;;;;;;5.70;3.10;;;;;;;19.44;64.63;96913.53;5019127;28;20093;-82
2021/08/21 07:04:32;;;;;;;3.08;2.78;;;;;;;19.55;64.47;96912.75;5018999;28;20031;-81
2021/08/21 07:07:07;;;;;;;4.70;3.30;;;;;;;19.64;63.67;96913.19;5013454;28;20072;-82
2021/08/21 07:09:36;;;;;;;3.83;2.95;;;;;;;19.77;64.83;96918.28;5007323;28;20050;-82
2021/08/21 07:12:05;;;;;;;4.57;2.70;;;;;;;19.89;63.45;96916.41;5007866;28;20050;-81
2021/08/21 07:14:34;;;;;;;2.90;2.65;;;;;;;20.00;64.33;96917.41;5011067;28;20120;-82
2021/08/21 07:17:03;;;;;;;4.68;2.95;;;;;;;20.12;63.51;96923.50;5011425;28;20050;-82
2021/08/21 07:19:31;;;;;;;3.03;2.72;;;;;;;20.22;62.89;96914.13;5018871;28;20041;-83
2021/08/21 07:22:00;;;;;;;3.55;2.42;;;;;;;20.31;62.83;96920.66;5023068;28;20073;-82
2021/08/21 07:24:30;;;;;;;3.47;3.05;;;;;;;20.40;62.43;96916.63;5022910;28;20037;-82
2021/08/21 07:26:59;;;;;;;5.10;3.67;;;;;;;20.49;61.77;96917.84;5014928;28;20065;-82
2021/08/21 07:29:27;;;;;;;16.10;10.85;;;;;;;20.60;61.33;96916.22;5011437;28;20076;-82
2021/08/21 07:31:56;;;;;;;5.03;4.30;;;;;;;20.71;62.10;96914.56;5010837;28;20054;-82
2021/08/21 07:34:24;;;;;;;3.38;2.80;;;;;;;20.81;61.39;96921.88;5017564;28;20038;-82
2021/08/21 07:36:53;;;;;;;4.60;3.20;;;;;;;20.88;61.16;96912.72;5011682;28;20074;-82
2021/08/21 07:39:22;;;;;;;2.85;2.45;;;;;;;20.96;61.27;96916.81;5011268;28;20058;-82
2021/08/21 07:41:52;;;;;;;2.97;2.70;;;;;;;21.04;59.85;96905.81;5010874;28;20101;-82
2021/08/21 07:44:21;;;;;;;2.63;2.35;;;;;;;21.13;60.80;96911.53;5011694;28;20046;-82
2021/08/21 07:46:50;;;;;;;3.40;2.63;;;;;;;21.20;58.73;96914.81;5012182;28;20050;-82
2021/08/21 07:49:21;;;;;;;18.63;2.83;;;;;;;21.25;58.18;96911.44;5013572;28;20054;-82
2021/08/21 07:51:51;;;;;;;3.83;2.58;;;;;;;21.28;57.45;96911.75;5014443;28;20054;-82
2021/08/21 07:54:19;;;;;;;2.45;2.25;;;;;;;21.36;57.46;96911.34;5013587;28;20085;-82
2021/08/21 07:56:48;;;;;;;4.90;2.67;;;;;;;21.44;56.72;96909.38;5013631;28;20106;-82
2021/08/21 07:59:19;;;;;;;2.47;2.17;;;;;;;21.49;56.68;96912.88;5013361;28;20054;-82
2021/08/21 08:01:48;;;;;;;2.45;2.25;;;;;;;21.57;56.60;96920.44;5013281;28;20077;-82
2021/08/21 08:04:20;;;;;;;5.43;2.42;;;;;;;21.65;56.01;96911.25;5013026;28;20054;-82
2021/08/21 08:06:49;;;;;;;4.10;2.70;;;;;;;21.75;56.73;96914.03;5013608;28;20110;-81
2021/08/21 08:09:21;;;;;;;2.78;2.45;;;;;;;21.84;56.75;96913.63;4995880;28;20057;-82
2021/08/21 08:11:50;;;;;;;6.00;2.90;;;;;;;21.91;55.54;96919.53;5012822;28;20052;-82
2021/08/21 08:14:22;;;;;;;7.47;2.60;;;;;;;21.96;55.47;96917.75;4995522;28;20114;-83
2021/08/21 08:16:53;;;;;;;3.75;2.58;;;;;;;22.02;55.01;96911.47;5012530;28;20066;-82
2021/08/21 08:19:22;;;;;;;3.40;2.10;;;;;;;22.13;54.79;96907.09;5013521;28;20062;-83
2021/08/21 08:21:51;;;;;;;3.08;2.78;;;;;;;22.26;54.68;96915.75;5013832;28;20054;-82
2021/08/21 08:24:20;;;;;;;6.30;3.22;;;;;;;22.39;56.08;96916.19;5012327;28;20081;-82
2021/08/21 08:26:50;;;;;;;5.63;3.03;;;;;;;22.54;54.02;96915.53;5013213;28;20050;-83
2021/08/21 08:29:21;;;;;;;2.40;2.20;;;;;;;22.67;54.00;96916.97;5013007;28;20082;-82
2021/08/21 08:31:51;;;;;;;3.85;2.50;;;;;;;22.83;54.56;96925.91;5013335;28;20129;-82
2021/08/21 08:34:20;;;;;;;4.28;2.70;;;;;;;22.96;53.88;96928.16;4995815;28;20034;-82
2021/08/21 08:36:50;;;;;;;3.00;2.60;;;;;;;23.06;52.44;96924.00;5012775;28;20061;-82
2021/08/21 08:39:19;;;;;;;3.22;2.60;;;;;;;23.14;52.51;96926.22;5012990;28;20057;-82
2021/08/21 08:41:52;;;;;;;7.15;2.42;;;;;;;23.24;53.53;96923.59;5013246;28;20050;-82
2021/08/21 08:44:24;;;;;;;3.75;2.70;;;;;;;23.34;52.55;96923.69;4995495;28;20054;-82
2021/08/21 08:46:54;;;;;;;5.38;2.78;;;;;;;23.44;52.73;96915.78;5013161;28;20061;-82
2021/08/21 08:49:27;;;;;;;3.05;2.30;;;;;;;23.50;52.06;96913.94;5012986;28;20078;-82
2021/08/21 08:51:57;;;;;;;4.90;3.10;;;;;;;23.58;51.73;96923.31;5013098;28;20418;-81
2021/08/21 08:54:27;;;;;;;2.80;2.20;;;;;;;23.67;52.88;96913.78;5013264;28;20081;-82
2021/08/21 08:56:56;;;;;;;2.90;2.33;;;;;;;23.85;52.45;96928.56;5013339;28;20109;-82
2021/08/21 08:59:26;;;;;;;2.72;2.40;;;;;;;23.99;50.93;96920.91;5013250;28;20061;-82
2021/08/21 09:01:56;;;;;;;3.25;2.88;;;;;;;24.14;50.83;96920.97;5013440;28;20073;-82
2021/08/21 09:04:27;;;;;;;3.97;2.33;;;;;;;24.24;52.15;96915.66;5012775;28;20114;-81
2021/08/21 09:06:56;;;;;;;3.28;2.83;;;;;;;24.40;51.38;96926.38;5013327;28;20078;-81
2021/08/21 09:09:27;;;;;;;2.60;2.40;;;;;;;24.54;51.59;96921.38;5012720;28;20054;-81
2021/08/21 09:12:01;;;;;;;4.30;2.30;;;;;;;24.68;50.91;96920.59;5012849;28;20050;-82
2021/08/21 09:14:33;;;;;;;3.63;2.38;;;;;;;24.84;50.66;96921.44;4995712;28;20050;-83
2021/08/21 09:17:21;;;;;;;2.75;2.55;;;;;;;25.00;50.87;96924.91;4995450;28;20062;-81
2021/08/21 09:20:03;;;;;;;2.45;2.05;;;;;;;25.13;49.10;96925.47;4996199;28;20046;-82
2021/08/21 09:22:33;;;;;;;2.53;2.10;;;;;;;25.22;50.10;96922.00;5013013;28;20414;-82
2021/08/21 09:25:04;;;;;;;3.80;2.97;;;;;;;25.34;48.55;96924.38;5013238;28;20438;-81
2021/08/21 09:27:34;;;;;;;2.40;2.20;;;;;;;25.45;49.22;96920.66;4996404;28;20117;-82
2021/08/21 09:30:13;;;;;;;4.22;2.67;;;;;;;25.60;47.90;96916.34;5012779;28;20053;-82
2021/08/21 09:32:43;;;;;;;3.22;2.50;;;;;;;25.73;47.83;96918.44;5012731;28;20048;-82
2021/08/21 09:35:13;;;;;;;4.68;2.60;;;;;;;25.81;46.59;96917.91;5012521;28;20070;-82
2021/08/21 09:37:50;;;;;;;4.70;3.00;;;;;;;25.87;46.08;96916.81;5012517;28;20042;-82
2021/08/21 09:40:28;;;;;;;2.90;2.53;;;;;;;25.95;47.06;96918.13;5015475;28;20054;-82
2021/08/21 09:42:57;;;;;;;2.53;2.20;;;;;;;26.06;46.74;96909.03;5016195;28;20046;-82
2021/08/21 09:45:28;;;;;;;3.83;2.53;;;;;;;26.19;46.65;96909.50;5015258;28;20077;-82
2021/08/21 09:48:03;;;;;;;2.78;2.58;;;;;;;26.28;45.59;96911.34;5012916;28;20514;-82
2021/08/21 09:50:37;;;;;;;2.47;2.20;;;;;;;26.37;45.48;96911.56;5012200;28;20042;-82
2021/08/21 09:53:10;;;;;;;3.78;2.90;;;;;;;26.44;45.34;96909.38;5012093;28;20054;-82
2021/08/21 09:55:46;;;;;;;2.42;2.22;;;;;;;26.50;45.37;96907.44;5012258;28;20050;-82
2021/08/21 09:58:20;;;;;;;3.22;2.63;;;;;;;26.57;45.40;96907.22;5011494;28;20050;-82
2021/08/21 10:01:07;;;;;;;3.95;2.78;;;;;;;26.67;45.90;96912.47;5011635;28;20050;-82
2021/08/21 10:03:46;;;;;;;2.88;2.20;;;;;;;26.78;45.86;96913.22;4994283;28;20053;-82
2021/08/21 10:06:15;;;;;;;6.07;2.72;;;;;;;26.91;45.14;96907.22;5011425;28;20109;-81
2021/08/21 10:08:45;;;;;;;3.15;2.85;;;;;;;27.04;45.22;96906.56;5011485;28;20078;-82
2021/08/21 10:11:28;;;;;;;3.05;2.35;;;;;;;27.16;44.87;96906.22;4995889;28;20078;-82
2021/08/21 10:13:59;;;;;;;3.47;3.03;;;;;;;27.24;44.81;96907.53;5011147;28;20057;-82
2021/08/21 10:16:31;;;;;;;2.83;2.53;;;;;;;27.27;43.99;96894.38;4993848;28;20126;-82
2021/08/21 10:19:01;;;;;;;;;;;;;;;27.39;45.47;96901.22;5011040;28;20061;-82
2021/08/21 10:21:33;;;;;;;2.42;2.22;;;;;;;27.46;44.84;96904.38;5010538;28;20284;-82
2021/08/21 10:26:47;;;;;;;3.22;3.00;;;;;;;27.62;42.32;96900.47;5146375;23;20050;-80
2021/08/21 10:29:16;;;;;;;4.63;2.83;;;;;;;27.69;42.74;96903.59;5034320;28;20042;-80
2021/08/21 10:31:49;;;;;;;4.18;2.85;;;;;;;27.70;41.77;96899.84;5027776;28;20045;-83
2021/08/21 10:34:18;;;;;;;6.63;5.47;;;;;;;27.74;42.04;96892.00;5023257;28;20053;-83
2021/08/21 10:36:56;;;;;;;2.97;2.63;;;;;;;27.80;42.51;96888.19;5024887;28;20052;-83
2021/08/21 10:39:34;;;;;;;3.63;3.03;;;;;;;27.88;41.82;96892.19;5047739;23;20027;-85
2021/08/21 10:42:22;;;;;;;4.70;2.92;;;;;;;27.99;41.17;96892.81;5038156;28;20036;-86
2021/08/21 10:44:50;;;;;;;3.45;3.15;;;;;;;28.01;41.27;96890.66;5038114;28;20048;-86
2021/08/21 10:47:40;;;;;;;3.70;2.83;;;;;;;28.02;41.96;96889.59;5036667;28;20037;-85
2021/08/21 10:50:31;;;;;;;2.90;2.70;;;;;;;28.06;40.71;96882.56;5035064;28;20034;-84
2021/08/21 10:52:59;;;;;;;3.50;3.20;;;;;;;28.13;41.32;96878.44;5033344;28;20053;-85
2021/08/21 10:55:35;;;;;;;3.13;2.83;;;;;;;28.23;41.67;96876.69;5030831;28;20346;-83
2021/08/21 10:58:08;;;;;;;3.28;2.72;;;;;;;28.30;41.20;96880.63;5027547;28;20050;-81
2021/08/21 11:00:56;;;;;;;3.25;2.95;;;;;;;28.33;40.31;96877.38;5026831;28;20045;-83
2021/08/21 11:03:49;;;;;;;3.10;2.45;;;;;;;28.35;39.68;96880.56;5026427;28;20046;-83
2021/08/21 11:06:17;;;;;;;;;;;;;;;28.40;41.38;96873.53;5027501;28;20069;-83
2021/08/21 11:08:58;;;;;;;4.03;3.00;;;;;;;28.43;40.54;96878.31;5022202;28;19921;-82
2021/08/21 11:11:30;;;;;;;3.13;2.70;;;;;;;28.42;38.42;96874.03;5022285;28;20053;-82
2021/08/21 11:13:59;;;;;;;;;;;;;;;28.45;40.24;96870.78;5023659;28;20069;-83
2021/08/21 11:16:54;;;;;;;4.55;2.95;;;;;;;28.47;39.91;96874.78;5022175;28;19921;-83
2021/08/21 11:19:35;;;;;;;3.25;2.92;;;;;;;28.50;39.52;96871.53;5026707;28;20046;-83
2021/08/21 11:22:14;;;;;;;2.60;2.40;;;;;;;28.55;39.10;96867.97;5029419;28;20050;-85
2021/08/21 11:25:07;;;;;;;4.28;2.97;;;;;;;28.57;38.03;96865.78;5033072;28;20042;-84
2021/08/21 11:27:43;;;;;;;2.97;2.47;;;;;;;28.57;39.83;96865.78;5024443;28;20061;-83
2021/08/21 11:30:15;;;;;;;4.13;2.30;;;;;;;28.61;39.29;96856.06;5022924;28;20050;-84
2021/08/21 11:32:43;;;;;;;;;;;;;;;28.64;40.13;96849.31;5021767;28;20053;-84
2021/08/21 11:35:18;;;;;;;5.40;3.15;;;;;;;28.65;39.39;96851.72;5020208;28;19921;-85
2021/08/21 11:37:51;;;;;;;4.22;3.00;;;;;;;28.70;39.96;96859.69;5021408;28;20057;-83
2021/08/21 11:40:22;;;;;;;3.58;3.10;;;;;;;28.73;38.93;96848.38;5020484;28;20490;-83
2021/08/21 11:42:52;;;;;;;2.95;2.75;;;;;;;28.74;39.49;96846.47;5020113;28;20046;-83
2021/08/21 11:45:21;;;;;;;5.03;2.97;;;;;;;28.72;38.82;96845.97;5019890;28;20420;-83
2021/08/21 11:47:51;;;;;;;4.28;3.50;;;;;;;28.64;38.38;96857.38;5020936;28;20046;-82
2021/08/21 11:50:24;;;;;;;3.67;3.05;;;;;;;28.56;38.48;96845.44;5020286;28;20073;-82
2021/08/21 11:52:53;;;;;;;2.95;2.75;;;;;;;28.53;39.30;96854.03;5021017;28;20057;-84
2021/08/21 11:55:22;;;;;;;3.47;3.10;;;;;;;28.49;38.47;96853.84;5021903;28;20057;-83